sensor_id;sensor_type;location;lat;lon;timestamp;P1;durP1;ratioP1;P2;durP2;ratioP2
20888;SDS011;10604;51.976;7.594;2022-11-20T00:01:22;16.70;;;9.85;;
20888;SDS011;10604;51.976;7.594;2022-11-20T00:03:50;19.17;;;11.18;;
20888;SDS011;10604;51.976;7.594;2022-11-20T00:06:17;19.05;;;10.70;;
20888;SDS011;10604;51.976;7.594;2022-11-20T00:08:43;18.25;;;10.93;;
20888;SDS011;10604;51.976;7.594;2022-11-20T00:11:10;15.20;;;11.38;;
20888;SDS011;10604;51.976;7.594;2022-11-20T00:13:38;17.88;;;11.13;;
20888;SDS011;10604;51.976;7.594;2022-11-20T00:16:04;16.70;;;10.77;;
20888;SDS011;10604;51.976;7.594;2022-11-20T00:18:32;21.08;;;10.90;;
20888;SDS011;10604;51.976;7.594;2022-11-20T00:21:06;17.50;;;10.93;;
20888;SDS011;10604;51.976;7.594;2022-11-20T00:23:35;15.65;;;10.32;;
20888;SDS011;10604;51.976;7.594;2022-11-20T00:26:02;14.07;;;10.38;;
20888;SDS011;10604;51.976;7.594;2022-11-20T00:28:31;14.02;;;9.75;;
20888;SDS011;10604;51.976;7.594;2022-11-20T00:31:03;15.43;;;10.65;;
20888;SDS011;10604;51.976;7.594;2022-11-20T00:33:30;17.23;;;9.68;;
20888;SDS011;10604;51.976;7.594;2022-11-20T00:36:38;14.68;;;9.75;;
20888;SDS011;10604;51.976;7.594;2022-11-20T00:38:45;16.08;;;10.43;;
20888;SDS011;10604;51.976;7.594;2022-11-20T00:41:13;15.30;;;10.18;;
20888;SDS011;10604;51.976;7.594;2022-11-20T00:43:39;15.30;;;9.85;;
20888;SDS011;10604;51.976;7.594;2022-11-20T00:46:06;16.30;;;10.20;;
20888;SDS011;10604;51.976;7.594;2022-11-20T00:48:33;16.25;;;11.05;;
20888;SDS011;10604;51.976;7.594;2022-11-20T00:50:59;15.25;;;9.95;;
20888;SDS011;10604;51.976;7.594;2022-11-20T00:53:25;18.73;;;10.43;;
20888;SDS011;10604;51.976;7.594;2022-11-20T00:55:54;15.85;;;9.95;;
20888;SDS011;10604;51.976;7.594;2022-11-20T00:58:21;16.65;;;11.25;;
20888;SDS011;10604;51.976;7.594;2022-11-20T01:00:48;19.27;;;11.27;;
20888;SDS011;10604;51.976;7.594;2022-11-20T01:03:17;20.05;;;12.43;;
20888;SDS011;10604;51.976;7.594;2022-11-20T01:05:43;17.02;;;10.60;;
20888;SDS011;10604;51.976;7.594;2022-11-20T01:08:08;18.23;;;11.23;;
20888;SDS011;10604;51.976;7.594;2022-11-20T01:10:34;15.52;;;10.45;;
20888;SDS011;10604;51.976;7.594;2022-11-20T01:12:59;19.70;;;10.15;;
20888;SDS011;10604;51.976;7.594;2022-11-20T01:15:43;16.13;;;9.77;;
20888;SDS011;10604;51.976;7.594;2022-11-20T01:18:09;15.48;;;10.02;;
20888;SDS011;10604;51.976;7.594;2022-11-20T01:20:34;16.63;;;10.05;;
20888;SDS011;10604;51.976;7.594;2022-11-20T01:23:01;17.63;;;10.88;;
20888;SDS011;10604;51.976;7.594;2022-11-20T01:25:27;14.55;;;10.32;;
20888;SDS011;10604;51.976;7.594;2022-11-20T01:27:52;13.20;;;9.55;;
20888;SDS011;10604;51.976;7.594;2022-11-20T01:30:18;18.23;;;10.57;;
20888;SDS011;10604;51.976;7.594;2022-11-20T01:32:43;13.45;;;9.35;;
20888;SDS011;10604;51.976;7.594;2022-11-20T01:35:09;12.43;;;9.18;;
20888;SDS011;10604;51.976;7.594;2022-11-20T01:37:35;17.83;;;10.65;;
20888;SDS011;10604;51.976;7.594;2022-11-20T01:40:00;14.38;;;9.20;;
20888;SDS011;10604;51.976;7.594;2022-11-20T01:42:25;14.48;;;9.57;;
20888;SDS011;10604;51.976;7.594;2022-11-20T01:48:18;14.43;;;9.13;;
20888;SDS011;10604;51.976;7.594;2022-11-20T01:50:47;14.68;;;9.10;;
20888;SDS011;10604;51.976;7.594;2022-11-20T01:53:15;14.90;;;10.02;;
20888;SDS011;10604;51.976;7.594;2022-11-20T01:55:50;16.75;;;9.27;;
20888;SDS011;10604;51.976;7.594;2022-11-20T01:58:18;16.05;;;10.02;;
20888;SDS011;10604;51.976;7.594;2022-11-20T02:00:48;15.82;;;9.73;;
20888;SDS011;10604;51.976;7.594;2022-11-20T02:03:15;18.30;;;9.63;;
20888;SDS011;10604;51.976;7.594;2022-11-20T02:08:27;12.05;;;8.93;;
20888;SDS011;10604;51.976;7.594;2022-11-20T02:10:53;17.08;;;10.40;;
20888;SDS011;10604;51.976;7.594;2022-11-20T02:13:19;14.63;;;9.25;;
20888;SDS011;10604;51.976;7.594;2022-11-20T02:16:03;13.07;;;9.57;;
20888;SDS011;10604;51.976;7.594;2022-11-20T02:18:29;14.15;;;9.00;;
20888;SDS011;10604;51.976;7.594;2022-11-20T02:21:56;15.63;;;10.27;;
20888;SDS011;10604;51.976;7.594;2022-11-20T02:27:02;15.60;;;9.80;;
20888;SDS011;10604;51.976;7.594;2022-11-20T02:32:03;14.75;;;9.88;;
20888;SDS011;10604;51.976;7.594;2022-11-20T02:34:28;17.50;;;10.50;;
20888;SDS011;10604;51.976;7.594;2022-11-20T02:36:54;15.20;;;9.85;;
20888;SDS011;10604;51.976;7.594;2022-11-20T02:39:22;14.77;;;9.73;;
20888;SDS011;10604;51.976;7.594;2022-11-20T02:41:50;11.45;;;9.23;;
20888;SDS011;10604;51.976;7.594;2022-11-20T02:44:18;19.67;;;10.57;;
20888;SDS011;10604;51.976;7.594;2022-11-20T02:46:44;16.88;;;9.90;;
20888;SDS011;10604;51.976;7.594;2022-11-20T02:49:09;13.90;;;9.88;;
20888;SDS011;10604;51.976;7.594;2022-11-20T02:51:35;15.07;;;10.07;;
20888;SDS011;10604;51.976;7.594;2022-11-20T02:54:00;13.55;;;8.73;;
20888;SDS011;10604;51.976;7.594;2022-11-20T02:56:25;18.65;;;10.27;;
20888;SDS011;10604;51.976;7.594;2022-11-20T02:58:51;18.02;;;11.10;;
20888;SDS011;10604;51.976;7.594;2022-11-20T03:01:17;13.77;;;9.10;;
20888;SDS011;10604;51.976;7.594;2022-11-20T03:03:42;16.02;;;9.77;;
20888;SDS011;10604;51.976;7.594;2022-11-20T03:06:08;14.80;;;9.70;;
20888;SDS011;10604;51.976;7.594;2022-11-20T03:08:33;16.92;;;9.77;;
20888;SDS011;10604;51.976;7.594;2022-11-20T03:11:03;15.68;;;9.30;;
20888;SDS011;10604;51.976;7.594;2022-11-20T03:13:30;16.52;;;10.02;;
20888;SDS011;10604;51.976;7.594;2022-11-20T03:15:55;17.83;;;10.57;;
20888;SDS011;10604;51.976;7.594;2022-11-20T03:18:20;13.98;;;8.95;;
20888;SDS011;10604;51.976;7.594;2022-11-20T03:20:46;17.52;;;10.68;;
20888;SDS011;10604;51.976;7.594;2022-11-20T03:23:11;16.20;;;10.15;;
20888;SDS011;10604;51.976;7.594;2022-11-20T03:25:36;14.65;;;9.70;;
20888;SDS011;10604;51.976;7.594;2022-11-20T03:28:02;15.30;;;9.60;;
20888;SDS011;10604;51.976;7.594;2022-11-20T03:30:27;14.40;;;9.55;;
20888;SDS011;10604;51.976;7.594;2022-11-20T03:32:53;16.23;;;9.25;;
20888;SDS011;10604;51.976;7.594;2022-11-20T03:35:19;17.42;;;10.27;;
20888;SDS011;10604;51.976;7.594;2022-11-20T03:37:44;18.25;;;9.95;;
20888;SDS011;10604;51.976;7.594;2022-11-20T03:40:10;16.15;;;9.82;;
20888;SDS011;10604;51.976;7.594;2022-11-20T03:42:36;15.90;;;10.05;;
20888;SDS011;10604;51.976;7.594;2022-11-20T03:45:10;17.30;;;10.32;;
20888;SDS011;10604;51.976;7.594;2022-11-20T03:47:37;11.52;;;8.38;;
20888;SDS011;10604;51.976;7.594;2022-11-20T03:50:02;13.60;;;9.52;;
20888;SDS011;10604;51.976;7.594;2022-11-20T03:52:28;16.77;;;11.43;;
20888;SDS011;10604;51.976;7.594;2022-11-20T03:54:54;16.65;;;10.00;;
20888;SDS011;10604;51.976;7.594;2022-11-20T03:57:19;14.55;;;9.10;;
20888;SDS011;10604;51.976;7.594;2022-11-20T03:59:45;14.52;;;8.70;;
20888;SDS011;10604;51.976;7.594;2022-11-20T04:02:10;14.32;;;9.90;;
20888;SDS011;10604;51.976;7.594;2022-11-20T04:04:35;14.57;;;9.40;;
20888;SDS011;10604;51.976;7.594;2022-11-20T04:07:01;14.73;;;9.50;;
20888;SDS011;10604;51.976;7.594;2022-11-20T04:09:27;16.15;;;9.32;;
20888;SDS011;10604;51.976;7.594;2022-11-20T04:11:52;15.45;;;9.25;;
20888;SDS011;10604;51.976;7.594;2022-11-20T04:14:17;14.65;;;9.75;;
20888;SDS011;10604;51.976;7.594;2022-11-20T04:16:43;11.88;;;8.85;;
20888;SDS011;10604;51.976;7.594;2022-11-20T04:19:09;14.85;;;8.98;;
20888;SDS011;10604;51.976;7.594;2022-11-20T04:21:37;16.35;;;9.30;;
20888;SDS011;10604;51.976;7.594;2022-11-20T04:24:03;18.38;;;8.85;;
20888;SDS011;10604;51.976;7.594;2022-11-20T04:26:29;15.90;;;9.57;;
20888;SDS011;10604;51.976;7.594;2022-11-20T04:28:55;15.55;;;8.85;;
20888;SDS011;10604;51.976;7.594;2022-11-20T04:31:22;12.80;;;9.32;;
20888;SDS011;10604;51.976;7.594;2022-11-20T04:33:49;13.43;;;8.57;;
20888;SDS011;10604;51.976;7.594;2022-11-20T04:36:19;14.43;;;9.05;;
20888;SDS011;10604;51.976;7.594;2022-11-20T04:38:46;15.27;;;9.07;;
20888;SDS011;10604;51.976;7.594;2022-11-20T04:41:16;14.23;;;9.20;;
20888;SDS011;10604;51.976;7.594;2022-11-20T04:43:50;12.57;;;9.27;;
20888;SDS011;10604;51.976;7.594;2022-11-20T04:46:17;16.30;;;9.20;;
20888;SDS011;10604;51.976;7.594;2022-11-20T04:48:44;14.55;;;9.27;;
20888;SDS011;10604;51.976;7.594;2022-11-20T04:51:10;14.70;;;9.55;;
20888;SDS011;10604;51.976;7.594;2022-11-20T04:53:35;15.25;;;9.48;;
20888;SDS011;10604;51.976;7.594;2022-11-20T04:56:01;15.00;;;9.57;;
20888;SDS011;10604;51.976;7.594;2022-11-20T04:58:28;13.90;;;9.40;;
20888;SDS011;10604;51.976;7.594;2022-11-20T05:00:53;13.10;;;9.35;;
20888;SDS011;10604;51.976;7.594;2022-11-20T05:03:25;17.10;;;9.68;;
20888;SDS011;10604;51.976;7.594;2022-11-20T05:05:50;15.48;;;10.00;;
20888;SDS011;10604;51.976;7.594;2022-11-20T05:08:15;15.68;;;10.27;;
20888;SDS011;10604;51.976;7.594;2022-11-20T05:10:41;16.25;;;9.85;;
20888;SDS011;10604;51.976;7.594;2022-11-20T05:13:06;17.55;;;10.45;;
20888;SDS011;10604;51.976;7.594;2022-11-20T05:15:32;16.92;;;10.13;;
20888;SDS011;10604;51.976;7.594;2022-11-20T05:17:57;17.30;;;10.85;;
20888;SDS011;10604;51.976;7.594;2022-11-20T05:20:22;13.38;;;9.43;;
20888;SDS011;10604;51.976;7.594;2022-11-20T05:22:47;15.63;;;10.07;;
20888;SDS011;10604;51.976;7.594;2022-11-20T05:25:13;14.65;;;9.80;;
20888;SDS011;10604;51.976;7.594;2022-11-20T05:27:38;14.90;;;10.00;;
20888;SDS011;10604;51.976;7.594;2022-11-20T05:30:04;15.95;;;10.85;;
20888;SDS011;10604;51.976;7.594;2022-11-20T05:32:30;14.23;;;10.93;;
20888;SDS011;10604;51.976;7.594;2022-11-20T05:34:55;17.15;;;10.88;;
20888;SDS011;10604;51.976;7.594;2022-11-20T05:37:21;15.98;;;10.32;;
20888;SDS011;10604;51.976;7.594;2022-11-20T05:39:46;14.93;;;10.48;;
20888;SDS011;10604;51.976;7.594;2022-11-20T05:42:11;16.23;;;10.63;;
20888;SDS011;10604;51.976;7.594;2022-11-20T05:44:55;15.70;;;10.85;;
20888;SDS011;10604;51.976;7.594;2022-11-20T05:47:21;17.48;;;10.90;;
20888;SDS011;10604;51.976;7.594;2022-11-20T05:49:46;14.20;;;9.75;;
20888;SDS011;10604;51.976;7.594;2022-11-20T05:52:12;15.27;;;10.60;;
20888;SDS011;10604;51.976;7.594;2022-11-20T05:54:37;14.30;;;10.23;;
20888;SDS011;10604;51.976;7.594;2022-11-20T05:57:02;17.80;;;11.38;;
20888;SDS011;10604;51.976;7.594;2022-11-20T05:59:28;17.30;;;10.48;;
20888;SDS011;10604;51.976;7.594;2022-11-20T06:01:54;18.63;;;11.90;;
20888;SDS011;10604;51.976;7.594;2022-11-20T06:04:19;18.88;;;11.65;;
20888;SDS011;10604;51.976;7.594;2022-11-20T06:06:44;20.30;;;11.13;;
20888;SDS011;10604;51.976;7.594;2022-11-20T06:09:10;17.85;;;11.80;;
20888;SDS011;10604;51.976;7.594;2022-11-20T06:11:35;20.58;;;12.00;;
20888;SDS011;10604;51.976;7.594;2022-11-20T06:14:00;19.40;;;12.05;;
20888;SDS011;10604;51.976;7.594;2022-11-20T06:16:25;20.70;;;11.68;;
20888;SDS011;10604;51.976;7.594;2022-11-20T06:18:51;26.30;;;12.90;;
20888;SDS011;10604;51.976;7.594;2022-11-20T06:21:18;17.33;;;12.13;;
20888;SDS011;10604;51.976;7.594;2022-11-20T06:23:45;20.13;;;12.23;;
20888;SDS011;10604;51.976;7.594;2022-11-20T06:26:14;21.55;;;12.27;;
20888;SDS011;10604;51.976;7.594;2022-11-20T06:28:42;22.05;;;12.55;;
20888;SDS011;10604;51.976;7.594;2022-11-20T06:31:09;20.88;;;12.10;;
20888;SDS011;10604;51.976;7.594;2022-11-20T06:33:36;23.23;;;13.38;;
20888;SDS011;10604;51.976;7.594;2022-11-20T06:36:02;20.17;;;12.15;;
20888;SDS011;10604;51.976;7.594;2022-11-20T06:38:28;21.77;;;12.50;;
20888;SDS011;10604;51.976;7.594;2022-11-20T06:40:53;20.35;;;12.27;;
20888;SDS011;10604;51.976;7.594;2022-11-20T06:43:20;23.55;;;13.27;;
20888;SDS011;10604;51.976;7.594;2022-11-20T06:45:45;23.00;;;13.57;;
20888;SDS011;10604;51.976;7.594;2022-11-20T06:48:11;26.08;;;14.55;;
20888;SDS011;10604;51.976;7.594;2022-11-20T06:50:37;22.35;;;13.52;;
20888;SDS011;10604;51.976;7.594;2022-11-20T06:53:03;25.63;;;14.32;;
20888;SDS011;10604;51.976;7.594;2022-11-20T06:55:29;22.77;;;12.68;;
20888;SDS011;10604;51.976;7.594;2022-11-20T06:57:55;24.70;;;13.70;;
20888;SDS011;10604;51.976;7.594;2022-11-20T07:00:21;22.92;;;13.23;;
20888;SDS011;10604;51.976;7.594;2022-11-20T07:02:46;30.10;;;15.10;;
20888;SDS011;10604;51.976;7.594;2022-11-20T07:05:11;27.58;;;15.05;;
20888;SDS011;10604;51.976;7.594;2022-11-20T07:07:37;30.65;;;15.95;;
20888;SDS011;10604;51.976;7.594;2022-11-20T07:10:02;28.10;;;15.07;;
20888;SDS011;10604;51.976;7.594;2022-11-20T07:12:28;23.80;;;14.13;;
20888;SDS011;10604;51.976;7.594;2022-11-20T07:14:53;29.50;;;15.18;;
20888;SDS011;10604;51.976;7.594;2022-11-20T07:17:19;24.13;;;14.27;;
20888;SDS011;10604;51.976;7.594;2022-11-20T07:19:44;32.33;;;15.38;;
20888;SDS011;10604;51.976;7.594;2022-11-20T07:22:09;25.15;;;15.02;;
20888;SDS011;10604;51.976;7.594;2022-11-20T07:24:35;37.05;;;15.65;;
20888;SDS011;10604;51.976;7.594;2022-11-20T07:27:00;29.13;;;16.35;;
20888;SDS011;10604;51.976;7.594;2022-11-20T07:29:26;39.15;;;16.02;;
20888;SDS011;10604;51.976;7.594;2022-11-20T07:31:51;30.98;;;15.93;;
20888;SDS011;10604;51.976;7.594;2022-11-20T07:34:16;32.80;;;16.58;;
20888;SDS011;10604;51.976;7.594;2022-11-20T07:36:42;34.13;;;17.42;;
20888;SDS011;10604;51.976;7.594;2022-11-20T07:39:07;36.65;;;18.52;;
20888;SDS011;10604;51.976;7.594;2022-11-20T07:41:32;73.85;;;32.60;;
20888;SDS011;10604;51.976;7.594;2022-11-20T07:43:58;48.72;;;24.70;;
20888;SDS011;10604;51.976;7.594;2022-11-20T07:46:23;50.85;;;21.55;;
20888;SDS011;10604;51.976;7.594;2022-11-20T07:48:49;43.08;;;21.40;;
20888;SDS011;10604;51.976;7.594;2022-11-20T07:51:14;43.97;;;21.75;;
20888;SDS011;10604;51.976;7.594;2022-11-20T07:53:39;42.72;;;21.02;;
20888;SDS011;10604;51.976;7.594;2022-11-20T07:56:05;42.22;;;20.95;;
20888;SDS011;10604;51.976;7.594;2022-11-20T07:58:31;40.30;;;20.20;;
20888;SDS011;10604;51.976;7.594;2022-11-20T08:00:58;36.50;;;20.52;;
20888;SDS011;10604;51.976;7.594;2022-11-20T08:03:28;38.40;;;19.58;;
20888;SDS011;10604;51.976;7.594;2022-11-20T08:05:53;38.65;;;18.95;;
20888;SDS011;10604;51.976;7.594;2022-11-20T08:08:18;38.42;;;19.15;;
20888;SDS011;10604;51.976;7.594;2022-11-20T08:10:44;38.88;;;17.38;;
20888;SDS011;10604;51.976;7.594;2022-11-20T08:13:09;29.48;;;17.08;;
20888;SDS011;10604;51.976;7.594;2022-11-20T08:15:53;34.53;;;16.73;;
20888;SDS011;10604;51.976;7.594;2022-11-20T08:18:18;37.45;;;20.02;;
20888;SDS011;10604;51.976;7.594;2022-11-20T08:20:44;41.90;;;26.38;;
20888;SDS011;10604;51.976;7.594;2022-11-20T08:23:09;68.15;;;32.05;;
20888;SDS011;10604;51.976;7.594;2022-11-20T08:25:36;41.38;;;21.38;;
20888;SDS011;10604;51.976;7.594;2022-11-20T08:28:04;39.00;;;21.73;;
20888;SDS011;10604;51.976;7.594;2022-11-20T08:30:31;35.10;;;19.95;;
20888;SDS011;10604;51.976;7.594;2022-11-20T08:33:00;36.20;;;17.80;;
20888;SDS011;10604;51.976;7.594;2022-11-20T08:35:28;36.85;;;17.77;;
20888;SDS011;10604;51.976;7.594;2022-11-20T08:37:53;39.60;;;21.38;;
20888;SDS011;10604;51.976;7.594;2022-11-20T08:40:18;53.38;;;26.98;;
20888;SDS011;10604;51.976;7.594;2022-11-20T08:42:47;41.55;;;22.05;;
20888;SDS011;10604;51.976;7.594;2022-11-20T08:45:14;31.42;;;17.33;;
20888;SDS011;10604;51.976;7.594;2022-11-20T08:47:40;26.83;;;16.55;;
20888;SDS011;10604;51.976;7.594;2022-11-20T08:50:06;25.63;;;15.50;;
20888;SDS011;10604;51.976;7.594;2022-11-20T08:52:32;36.28;;;19.67;;
20888;SDS011;10604;51.976;7.594;2022-11-20T08:54:57;29.75;;;19.33;;
20888;SDS011;10604;51.976;7.594;2022-11-20T08:57:22;57.30;;;27.83;;
20888;SDS011;10604;51.976;7.594;2022-11-20T08:59:48;42.53;;;24.80;;
20888;SDS011;10604;51.976;7.594;2022-11-20T09:02:13;49.22;;;27.30;;
20888;SDS011;10604;51.976;7.594;2022-11-20T09:04:39;38.22;;;20.55;;
20888;SDS011;10604;51.976;7.594;2022-11-20T09:07:04;31.38;;;18.80;;
20888;SDS011;10604;51.976;7.594;2022-11-20T09:09:29;50.92;;;28.48;;
20888;SDS011;10604;51.976;7.594;2022-11-20T09:11:55;37.42;;;21.88;;
20888;SDS011;10604;51.976;7.594;2022-11-20T09:14:21;30.23;;;16.45;;
20888;SDS011;10604;51.976;7.594;2022-11-20T09:16:46;30.67;;;19.70;;
20888;SDS011;10604;51.976;7.594;2022-11-20T09:19:11;29.17;;;18.52;;
20888;SDS011;10604;51.976;7.594;2022-11-20T09:21:37;31.13;;;19.95;;
20888;SDS011;10604;51.976;7.594;2022-11-20T09:24:02;32.17;;;19.83;;
20888;SDS011;10604;51.976;7.594;2022-11-20T09:26:29;30.70;;;19.27;;
20888;SDS011;10604;51.976;7.594;2022-11-20T09:28:54;28.52;;;17.70;;
20888;SDS011;10604;51.976;7.594;2022-11-20T09:31:24;27.77;;;17.40;;
20888;SDS011;10604;51.976;7.594;2022-11-20T09:33:51;31.80;;;19.85;;
20888;SDS011;10604;51.976;7.594;2022-11-20T09:36:18;46.22;;;27.67;;
20888;SDS011;10604;51.976;7.594;2022-11-20T09:38:46;33.08;;;23.38;;
20888;SDS011;10604;51.976;7.594;2022-11-20T09:44:35;35.38;;;24.80;;
20888;SDS011;10604;51.976;7.594;2022-11-20T09:55:38;24.58;;;14.88;;
20888;SDS011;10604;51.976;7.594;2022-11-20T09:58:07;23.77;;;16.50;;
20888;SDS011;10604;51.976;7.594;2022-11-20T10:00:44;24.40;;;14.75;;
20888;SDS011;10604;51.976;7.594;2022-11-20T10:03:13;27.42;;;16.52;;
20888;SDS011;10604;51.976;7.594;2022-11-20T10:08:19;27.15;;;17.02;;
20888;SDS011;10604;51.976;7.594;2022-11-20T10:16:41;26.05;;;16.85;;
20888;SDS011;10604;51.976;7.594;2022-11-20T10:19:15;30.08;;;18.45;;
20888;SDS011;10604;51.976;7.594;2022-11-20T10:22:03;28.38;;;18.27;;
20888;SDS011;10604;51.976;7.594;2022-11-20T10:24:39;28.42;;;18.23;;
20888;SDS011;10604;51.976;7.594;2022-11-20T10:29:44;22.73;;;15.13;;
20888;SDS011;10604;51.976;7.594;2022-11-20T10:32:16;22.20;;;14.80;;
20888;SDS011;10604;51.976;7.594;2022-11-20T10:37:23;19.77;;;13.00;;
20888;SDS011;10604;51.976;7.594;2022-11-20T10:39:59;21.80;;;14.63;;
20888;SDS011;10604;51.976;7.594;2022-11-20T10:42:44;21.25;;;13.45;;
20888;SDS011;10604;51.976;7.594;2022-11-20T10:47:49;18.95;;;13.90;;
20888;SDS011;10604;51.976;7.594;2022-11-20T10:50:18;20.48;;;13.60;;
20888;SDS011;10604;51.976;7.594;2022-11-20T11:00:40;16.67;;;12.05;;
20888;SDS011;10604;51.976;7.594;2022-11-20T11:03:25;19.58;;;13.23;;
20888;SDS011;10604;51.976;7.594;2022-11-20T11:08:32;16.42;;;12.07;;
20888;SDS011;10604;51.976;7.594;2022-11-20T11:11:05;15.32;;;11.25;;
20888;SDS011;10604;51.976;7.594;2022-11-20T11:13:37;17.20;;;12.35;;
20888;SDS011;10604;51.976;7.594;2022-11-20T11:16:03;20.10;;;12.85;;
20888;SDS011;10604;51.976;7.594;2022-11-20T11:18:29;32.08;;;19.02;;
20888;SDS011;10604;51.976;7.594;2022-11-20T11:20:58;16.02;;;11.13;;
20888;SDS011;10604;51.976;7.594;2022-11-20T11:26:05;14.52;;;9.85;;
20888;SDS011;10604;51.976;7.594;2022-11-20T11:28:42;13.98;;;10.05;;
20888;SDS011;10604;51.976;7.594;2022-11-20T11:34:11;15.07;;;10.32;;
20888;SDS011;10604;51.976;7.594;2022-11-20T11:36:38;15.00;;;10.00;;
20888;SDS011;10604;51.976;7.594;2022-11-20T11:39:05;14.18;;;10.68;;
20888;SDS011;10604;51.976;7.594;2022-11-20T11:41:36;12.10;;;9.13;;
20888;SDS011;10604;51.976;7.594;2022-11-20T11:47:30;9.68;;;7.65;;
20888;SDS011;10604;51.976;7.594;2022-11-20T11:52:34;10.25;;;7.82;;
20888;SDS011;10604;51.976;7.594;2022-11-20T11:55:07;10.52;;;7.50;;
20888;SDS011;10604;51.976;7.594;2022-11-20T12:00:21;8.98;;;6.68;;
20888;SDS011;10604;51.976;7.594;2022-11-20T12:05:28;10.65;;;6.25;;
20888;SDS011;10604;51.976;7.594;2022-11-20T12:08:04;11.10;;;6.85;;
20888;SDS011;10604;51.976;7.594;2022-11-20T12:15:56;7.18;;;5.65;;
20888;SDS011;10604;51.976;7.594;2022-11-20T12:18:22;8.90;;;6.63;;
20888;SDS011;10604;51.976;7.594;2022-11-20T12:26:54;10.65;;;7.13;;
20888;SDS011;10604;51.976;7.594;2022-11-20T12:32:11;10.75;;;7.32;;
20888;SDS011;10604;51.976;7.594;2022-11-20T12:43:03;12.85;;;8.23;;
20888;SDS011;10604;51.976;7.594;2022-11-20T12:56:24;15.93;;;11.27;;
20888;SDS011;10604;51.976;7.594;2022-11-20T13:01:52;13.40;;;10.18;;
20888;SDS011;10604;51.976;7.594;2022-11-20T13:07:01;19.15;;;12.00;;
20888;SDS011;10604;51.976;7.594;2022-11-20T13:09:30;23.10;;;13.10;;
20888;SDS011;10604;51.976;7.594;2022-11-20T13:12:09;23.67;;;15.63;;
20888;SDS011;10604;51.976;7.594;2022-11-20T13:14:50;22.63;;;14.77;;
20888;SDS011;10604;51.976;7.594;2022-11-20T13:20:04;22.42;;;14.07;;
20888;SDS011;10604;51.976;7.594;2022-11-20T13:22:48;24.35;;;15.35;;
20888;SDS011;10604;51.976;7.594;2022-11-20T13:27:56;25.42;;;15.93;;
20888;SDS011;10604;51.976;7.594;2022-11-20T13:30:24;24.30;;;15.68;;
20888;SDS011;10604;51.976;7.594;2022-11-20T13:32:52;21.25;;;14.85;;
20888;SDS011;10604;51.976;7.594;2022-11-20T13:36:03;21.52;;;14.52;;
20888;SDS011;10604;51.976;7.594;2022-11-20T13:38:19;22.20;;;14.73;;
20888;SDS011;10604;51.976;7.594;2022-11-20T13:43:34;27.38;;;17.08;;
20888;SDS011;10604;51.976;7.594;2022-11-20T13:46:04;27.83;;;18.95;;
20888;SDS011;10604;51.976;7.594;2022-11-20T13:48:32;31.77;;;20.67;;
20888;SDS011;10604;51.976;7.594;2022-11-20T14:01:35;30.77;;;16.92;;
20888;SDS011;10604;51.976;7.594;2022-11-20T14:04:08;29.42;;;18.67;;
20888;SDS011;10604;51.976;7.594;2022-11-20T14:06:41;25.15;;;18.77;;
20888;SDS011;10604;51.976;7.594;2022-11-20T14:09:12;27.00;;;17.33;;
20888;SDS011;10604;51.976;7.594;2022-11-20T14:11:49;27.30;;;17.17;;
20888;SDS011;10604;51.976;7.594;2022-11-20T14:14:18;33.22;;;20.95;;
20888;SDS011;10604;51.976;7.594;2022-11-20T14:16:45;33.47;;;22.48;;
20888;SDS011;10604;51.976;7.594;2022-11-20T14:21:49;34.55;;;22.35;;
20888;SDS011;10604;51.976;7.594;2022-11-20T14:24:30;32.80;;;22.40;;
20888;SDS011;10604;51.976;7.594;2022-11-20T14:26:56;30.02;;;19.35;;
20888;SDS011;10604;51.976;7.594;2022-11-20T14:29:42;27.63;;;17.85;;
20888;SDS011;10604;51.976;7.594;2022-11-20T14:32:08;27.95;;;17.25;;
20888;SDS011;10604;51.976;7.594;2022-11-20T14:34:37;28.13;;;18.90;;
20888;SDS011;10604;51.976;7.594;2022-11-20T14:37:06;25.50;;;17.92;;
20888;SDS011;10604;51.976;7.594;2022-11-20T14:39:42;26.77;;;17.48;;
20888;SDS011;10604;51.976;7.594;2022-11-20T14:42:18;31.45;;;19.60;;
20888;SDS011;10604;51.976;7.594;2022-11-20T14:44:48;34.78;;;20.33;;
20888;SDS011;10604;51.976;7.594;2022-11-20T14:47:17;33.28;;;19.75;;
20888;SDS011;10604;51.976;7.594;2022-11-20T14:49:46;26.13;;;17.80;;
20888;SDS011;10604;51.976;7.594;2022-11-20T14:52:13;28.75;;;17.67;;
20888;SDS011;10604;51.976;7.594;2022-11-20T14:54:47;25.83;;;17.10;;
20888;SDS011;10604;51.976;7.594;2022-11-20T15:02:40;29.73;;;20.52;;
20888;SDS011;10604;51.976;7.594;2022-11-20T15:05:07;24.70;;;17.17;;
20888;SDS011;10604;51.976;7.594;2022-11-20T15:07:34;26.40;;;17.20;;
20888;SDS011;10604;51.976;7.594;2022-11-20T15:10:05;27.13;;;18.88;;
20888;SDS011;10604;51.976;7.594;2022-11-20T15:12:49;30.02;;;18.15;;
20888;SDS011;10604;51.976;7.594;2022-11-20T15:16:01;22.25;;;16.00;;
20888;SDS011;10604;51.976;7.594;2022-11-20T15:18:02;22.65;;;15.25;;
20888;SDS011;10604;51.976;7.594;2022-11-20T15:20:30;24.85;;;16.50;;
20888;SDS011;10604;51.976;7.594;2022-11-20T15:22:57;22.88;;;15.50;;
20888;SDS011;10604;51.976;7.594;2022-11-20T15:25:23;26.95;;;16.83;;
20888;SDS011;10604;51.976;7.594;2022-11-20T15:27:50;24.80;;;15.80;;
20888;SDS011;10604;51.976;7.594;2022-11-20T15:30:19;24.23;;;16.13;;
20888;SDS011;10604;51.976;7.594;2022-11-20T15:32:45;26.05;;;17.33;;
20888;SDS011;10604;51.976;7.594;2022-11-20T15:35:12;23.25;;;15.32;;
20888;SDS011;10604;51.976;7.594;2022-11-20T15:37:39;26.35;;;17.30;;
20888;SDS011;10604;51.976;7.594;2022-11-20T15:40:06;39.13;;;24.52;;
20888;SDS011;10604;51.976;7.594;2022-11-20T15:42:32;34.80;;;23.63;;
20888;SDS011;10604;51.976;7.594;2022-11-20T15:44:58;35.60;;;22.85;;
20888;SDS011;10604;51.976;7.594;2022-11-20T15:47:28;28.90;;;20.05;;
20888;SDS011;10604;51.976;7.594;2022-11-20T15:49:56;30.40;;;21.80;;
20888;SDS011;10604;51.976;7.594;2022-11-20T15:52:21;27.27;;;18.95;;
20888;SDS011;10604;51.976;7.594;2022-11-20T15:54:47;26.83;;;18.88;;
20888;SDS011;10604;51.976;7.594;2022-11-20T15:57:12;25.38;;;18.42;;
20888;SDS011;10604;51.976;7.594;2022-11-20T15:59:38;29.60;;;18.98;;
20888;SDS011;10604;51.976;7.594;2022-11-20T16:02:10;30.33;;;18.58;;
20888;SDS011;10604;51.976;7.594;2022-11-20T16:04:36;26.92;;;16.98;;
20888;SDS011;10604;51.976;7.594;2022-11-20T16:07:01;25.20;;;17.00;;
20888;SDS011;10604;51.976;7.594;2022-11-20T16:09:27;24.20;;;15.85;;
20888;SDS011;10604;51.976;7.594;2022-11-20T16:11:52;25.50;;;16.00;;
20888;SDS011;10604;51.976;7.594;2022-11-20T16:14:17;23.65;;;15.60;;
20888;SDS011;10604;51.976;7.594;2022-11-20T16:17:02;25.67;;;17.25;;
20888;SDS011;10604;51.976;7.594;2022-11-20T16:19:28;23.52;;;15.98;;
20888;SDS011;10604;51.976;7.594;2022-11-20T16:21:53;25.80;;;18.00;;
20888;SDS011;10604;51.976;7.594;2022-11-20T16:24:18;25.17;;;17.13;;
20888;SDS011;10604;51.976;7.594;2022-11-20T16:26:44;25.27;;;16.15;;
20888;SDS011;10604;51.976;7.594;2022-11-20T16:29:09;24.70;;;16.55;;
20888;SDS011;10604;51.976;7.594;2022-11-20T16:31:35;27.90;;;17.52;;
20888;SDS011;10604;51.976;7.594;2022-11-20T16:34:02;25.40;;;18.10;;
20888;SDS011;10604;51.976;7.594;2022-11-20T16:36:29;33.45;;;21.70;;
20888;SDS011;10604;51.976;7.594;2022-11-20T16:38:57;33.78;;;22.17;;
20888;SDS011;10604;51.976;7.594;2022-11-20T16:41:25;27.15;;;18.65;;
20888;SDS011;10604;51.976;7.594;2022-11-20T16:43:52;33.10;;;23.17;;